createdAt,value
2019-05-01T00:01:43.527Z,8.60
2019-05-01T00:04:32.604Z,8.50
2019-05-01T00:07:09.878Z,8.40
2019-05-01T00:09:43.279Z,8.40
2019-05-01T00:12:14.443Z,8.30
2019-05-01T00:14:45.785Z,8.30
2019-05-01T00:17:28.993Z,8.30
2019-05-01T00:20:01.176Z,8.20
2019-05-01T00:22:33.629Z,8.20
2019-05-01T00:25:05.307Z,8.20
2019-05-01T00:27:36.431Z,8.10
2019-05-01T00:30:09.853Z,8.10
2019-05-01T00:32:41.157Z,8.00
2019-05-01T00:35:12.662Z,8.00
2019-05-01T00:37:43.774Z,7.90
2019-05-01T00:40:15.254Z,7.90
2019-05-01T00:42:46.283Z,7.90
2019-05-01T00:45:17.645Z,7.90
2019-05-01T00:47:48.785Z,7.80
2019-05-01T00:50:20.343Z,7.80
2019-05-01T00:52:51.545Z,7.80
2019-05-01T00:55:53.975Z,7.70
2019-05-01T00:58:49.920Z,7.60
2019-05-01T01:01:49.403Z,7.60
2019-05-01T01:04:21.095Z,7.60
2019-05-01T01:06:52.403Z,7.50
2019-05-01T01:09:23.485Z,7.50
2019-05-01T01:11:54.807Z,7.40
2019-05-01T01:14:25.933Z,7.40
2019-05-01T01:16:57.191Z,7.40
2019-05-01T01:19:28.279Z,7.40
2019-05-01T01:21:59.595Z,7.30
2019-05-01T01:24:30.737Z,7.30
2019-05-01T01:27:02.183Z,7.30
2019-05-01T01:29:33.335Z,7.20
2019-05-01T01:32:04.777Z,7.20
2019-05-01T01:34:36.075Z,7.20
2019-05-01T01:37:07.487Z,7.10
2019-05-01T01:39:38.623Z,7.10
2019-05-01T01:42:10.609Z,7.10
2019-05-01T01:44:50.597Z,7.10
2019-05-01T01:47:22.120Z,7.20
2019-05-01T01:49:55.597Z,7.10
2019-05-01T01:52:27.049Z,7.10
2019-05-01T01:54:58.087Z,7.10
2019-05-01T01:57:29.645Z,7.00
2019-05-01T02:00:01.591Z,6.90
2019-05-01T02:02:52.315Z,6.80
2019-05-01T02:05:29.729Z,6.80
2019-05-01T02:08:01.567Z,6.80
2019-05-01T02:10:42.690Z,6.80
2019-05-01T02:13:07.046Z,6.80
2019-05-01T02:15:38.093Z,6.70
2019-05-01T02:18:09.421Z,6.70
2019-05-01T02:20:40.455Z,6.60
2019-05-01T02:23:11.921Z,6.60
2019-05-01T02:25:44.276Z,6.60
2019-05-01T02:28:31.919Z,6.70
2019-05-01T02:31:27.937Z,6.60
2019-05-01T02:34:01.158Z,6.60
2019-05-01T02:36:34.763Z,6.50
2019-05-01T02:39:09.889Z,6.50
2019-05-01T02:41:43.401Z,6.30
2019-05-01T02:44:25.598Z,6.40
2019-05-01T02:46:59.549Z,6.40
2019-05-01T02:49:42.640Z,6.60
2019-05-01T02:52:14.879Z,6.60
2019-05-01T02:54:48.566Z,6.60
2019-05-01T02:57:22.305Z,6.60
2019-05-01T02:59:56.612Z,6.60
2019-05-01T03:02:28.830Z,6.50
2019-05-01T03:05:00.765Z,6.50
2019-05-01T03:07:33.906Z,6.40
2019-05-01T03:10:09.290Z,6.40
2019-05-01T03:12:42.033Z,6.40
2019-05-01T03:15:14.383Z,6.20
2019-05-01T03:18:03.669Z,6.20
2019-05-01T03:21:00.265Z,6.20
2019-05-01T03:23:47.500Z,6.20
2019-05-01T03:26:20.061Z,6.20
2019-05-01T03:28:51.209Z,6.10
2019-05-01T03:31:22.405Z,6.20
2019-05-01T03:33:53.709Z,6.10
2019-05-01T03:36:25.048Z,5.90
2019-05-01T03:38:56.215Z,6.10
2019-05-01T03:41:27.860Z,6.10
2019-05-01T03:43:59.271Z,6.20
2019-05-01T03:46:30.676Z,6.30
2019-05-01T03:49:02.061Z,6.30
2019-05-01T03:51:34.590Z,6.30
2019-05-01T03:54:05.724Z,6.30
2019-05-01T03:56:37.386Z,6.30
2019-05-01T03:59:09.871Z,6.30
2019-05-01T04:01:48.480Z,6.30
2019-05-01T04:04:22.108Z,6.40
2019-05-01T04:06:53.544Z,6.30
2019-05-01T04:09:25.194Z,6.20
2019-05-01T04:11:57.243Z,6.10
2019-05-01T04:14:28.430Z,5.80
2019-05-01T04:17:21.661Z,5.90
2019-05-01T04:19:52.781Z,6.00
2019-05-01T04:22:25.291Z,6.00
2019-05-01T04:24:56.519Z,6.00
2019-05-01T04:27:33.109Z,6.00
2019-05-01T04:30:15.997Z,6.00
2019-05-01T04:32:52.544Z,6.10
2019-05-01T04:35:30.106Z,6.20
2019-05-01T04:38:01.361Z,6.20
2019-05-01T04:40:32.678Z,6.30
2019-05-01T04:43:04.045Z,6.40
2019-05-01T04:45:35.104Z,6.60
2019-05-01T04:48:06.736Z,6.80
2019-05-01T04:50:38.194Z,6.90
2019-05-01T04:53:10.672Z,7.00
2019-05-01T04:55:41.711Z,7.10
2019-05-01T04:58:13.159Z,7.20
2019-05-01T05:00:44.390Z,7.20
2019-05-01T05:03:18.745Z,7.20
2019-05-01T05:05:49.799Z,7.20
2019-05-01T05:08:21.121Z,7.30
2019-05-01T05:10:53.482Z,7.30
2019-05-01T05:13:43.689Z,7.20
2019-05-01T05:16:43.679Z,7.10
2019-05-01T05:19:15.469Z,7.30
2019-05-01T05:21:46.832Z,7.50
2019-05-01T05:24:18.479Z,7.50
2019-05-01T05:26:50.497Z,7.50
2019-05-01T05:29:23.794Z,7.40
2019-05-01T05:31:56.989Z,7.50
2019-05-01T05:34:28.802Z,7.50
2019-05-01T05:37:02.822Z,7.60
2019-05-01T05:39:42.039Z,7.70
2019-05-01T05:42:14.641Z,7.80
2019-05-01T05:44:48.061Z,7.80
2019-05-01T05:47:19.301Z,7.90
2019-05-01T05:49:50.710Z,7.90
2019-05-01T05:52:46.119Z,8.00
2019-05-01T05:55:31.641Z,8.20
2019-05-01T05:58:31.732Z,8.00
2019-05-01T06:01:23.419Z,8.00
2019-05-01T06:04:15.488Z,8.20
2019-05-01T06:07:09.678Z,8.20
2019-05-01T06:10:04.172Z,8.40
2019-05-01T06:12:55.119Z,8.30
2019-05-01T06:15:36.661Z,8.40
2019-05-01T06:18:14.147Z,8.20
2019-05-01T06:21:05.052Z,8.30
2019-05-01T06:23:52.781Z,8.50
2019-05-01T06:26:31.943Z,8.60
2019-05-01T06:32:00.025Z,8.70
2019-05-01T06:34:31.220Z,8.70
2019-05-01T06:37:02.554Z,8.70
2019-05-01T06:39:48.145Z,8.50
2019-05-01T06:42:30.531Z,8.60
2019-05-01T06:45:07.509Z,8.50
2019-05-01T06:47:46.123Z,8.50
2019-05-01T06:50:45.863Z,8.70
2019-05-01T06:53:17.183Z,8.70
2019-05-01T06:55:51.319Z,8.20
2019-05-01T06:58:22.543Z,8.20
2019-05-01T07:00:53.651Z,8.20
2019-05-01T07:03:25.239Z,8.50
2019-05-01T07:05:56.660Z,8.60
2019-05-01T07:08:29.454Z,8.70
2019-05-01T07:11:01.198Z,8.70
2019-05-01T07:16:17.670Z,8.80
2019-05-01T07:18:49.118Z,8.80
2019-05-01T07:21:22.759Z,8.90
2019-05-01T07:23:53.855Z,9.10
2019-05-01T07:26:25.723Z,9.00
2019-05-01T07:28:59.368Z,9.10
2019-05-01T07:31:32.377Z,9.20
2019-05-01T07:34:16.059Z,8.80
2019-05-01T07:36:37.067Z,8.80
2019-05-01T07:39:09.787Z,9.00
2019-05-01T07:41:52.416Z,9.10
2019-05-01T07:44:36.406Z,9.10
2019-05-01T07:47:17.993Z,9.50
2019-05-01T07:49:58.587Z,9.60
2019-05-01T07:52:30.813Z,9.80
2019-05-01T07:55:02.499Z,10.20
2019-05-01T07:57:38.732Z,10.40
2019-05-01T08:00:12.128Z,10.40
2019-05-01T08:02:43.910Z,10.90
2019-05-01T08:05:23.449Z,10.90
2019-05-01T08:07:54.796Z,10.80
2019-05-01T08:10:30.547Z,10.90
2019-05-01T08:13:00.411Z,10.80
2019-05-01T08:15:32.668Z,10.60
2019-05-01T08:18:18.325Z,10.20
2019-05-01T08:20:54.734Z,10.20
2019-05-01T08:23:26.142Z,10.40
2019-05-01T08:25:57.212Z,10.50
2019-05-01T08:29:15.843Z,10.10
2019-05-01T08:31:58.871Z,10.30
2019-05-01T08:34:31.756Z,10.30
2019-05-01T08:37:03.078Z,10.30
2019-05-01T08:39:34.452Z,10.00
2019-05-01T08:42:07.013Z,10.30
2019-05-01T08:44:48.610Z,10.50
2019-05-01T08:47:28.214Z,10.70
2019-05-01T08:50:09.251Z,10.70
2019-05-01T08:52:42.725Z,10.90
2019-05-01T08:55:13.687Z,11.10
2019-05-01T08:57:44.937Z,11.10
2019-05-01T09:00:16.586Z,11.20
2019-05-01T09:02:47.683Z,11.30
2019-05-01T09:05:28.402Z,11.20
2019-05-01T09:07:56.145Z,11.20
2019-05-01T09:10:37.096Z,11.40
2019-05-01T09:13:08.136Z,11.50
2019-05-01T09:15:43.764Z,11.90
2019-05-01T09:18:12.738Z,12.00
2019-05-01T09:20:45.618Z,12.50
2019-05-01T09:23:16.731Z,12.80
2019-05-01T09:26:14.815Z,13.00
2019-05-01T09:28:46.939Z,13.20
2019-05-01T09:31:19.847Z,13.50
2019-05-01T09:33:50.874Z,13.60
2019-05-01T09:36:22.064Z,13.80
2019-05-01T09:38:53.219Z,13.70
2019-05-01T09:56:52.836Z,14.10
2019-05-01T09:59:23.985Z,14.30
2019-05-01T10:01:55.330Z,14.50
2019-05-01T10:04:30.173Z,14.60
2019-05-01T10:07:02.129Z,14.90
2019-05-01T10:09:47.209Z,15.00
2019-05-01T10:12:17.726Z,15.10
2019-05-01T10:14:48.762Z,15.10
2019-05-01T10:17:20.927Z,14.70
2019-05-01T10:19:51.998Z,14.60
2019-05-01T10:22:23.325Z,15.30
2019-05-01T10:24:54.356Z,15.50
2019-05-01T10:27:30.923Z,15.80
2019-05-01T10:30:19.651Z,16.00
2019-05-01T10:32:57.895Z,16.30
2019-05-01T10:36:01.326Z,16.50
2019-05-01T10:38:33.692Z,16.50
2019-05-01T10:41:09.134Z,16.60
2019-05-01T10:43:38.225Z,16.60
2019-05-01T10:46:09.391Z,16.90
2019-05-01T10:48:40.722Z,17.10
2019-05-01T10:51:12.076Z,17.20
2019-05-01T10:54:02.364Z,17.40
2019-05-01T10:56:33.430Z,17.40
2019-05-01T10:59:04.756Z,17.40
2019-05-01T11:01:48.982Z,17.00
2019-05-01T11:04:20.176Z,17.20
2019-05-01T11:06:51.202Z,17.10
2019-05-01T11:09:22.658Z,17.30
2019-05-01T11:11:53.734Z,17.40
2019-05-01T11:14:25.034Z,17.70
2019-05-01T11:16:56.126Z,17.70
2019-05-01T11:19:29.590Z,17.90
2019-05-01T11:22:00.218Z,18.00
2019-05-01T11:24:31.778Z,18.20
2019-05-01T11:27:02.815Z,18.20
2019-05-01T11:29:34.082Z,18.20
2019-05-01T11:32:16.339Z,18.20
2019-05-01T11:35:06.660Z,18.50
2019-05-01T11:38:11.982Z,18.60
2019-05-01T11:40:47.104Z,18.70
2019-05-01T11:43:18.642Z,18.60
2019-05-01T11:45:50.044Z,18.10
2019-05-01T11:48:25.068Z,18.40
2019-05-01T11:50:54.078Z,18.60
2019-05-01T11:53:25.594Z,18.70
2019-05-01T11:55:57.093Z,19.00
2019-05-01T11:58:28.155Z,19.40
2019-05-01T12:01:01.006Z,19.50
2019-05-01T12:03:32.473Z,19.60
2019-05-01T12:06:03.824Z,19.50
2019-05-01T12:08:34.968Z,19.50
2019-05-01T12:11:07.954Z,19.20
2019-05-01T12:13:43.838Z,18.80
2019-05-01T12:16:27.133Z,18.80
2019-05-01T12:18:58.178Z,18.80
2019-05-01T12:21:29.480Z,19.30
2019-05-01T12:24:00.528Z,19.50
2019-05-01T12:26:31.737Z,19.40
2019-05-01T12:29:02.778Z,19.70
2019-05-01T12:31:34.211Z,19.70
2019-05-01T12:34:05.272Z,19.50
2019-05-01T12:36:48.881Z,19.40
2019-05-01T12:39:20.080Z,19.80
2019-05-01T12:41:56.231Z,20.10
2019-05-01T12:44:27.286Z,20.10
2019-05-01T12:49:52.276Z,20.20
2019-05-01T12:55:30.387Z,20.50
2019-05-01T12:58:01.537Z,20.30
2019-05-01T13:01:02.374Z,20.10
2019-05-01T13:03:44.878Z,20.40
2019-05-01T13:06:16.136Z,20.40
2019-05-01T13:08:47.196Z,21.00
2019-05-01T13:11:18.425Z,20.90
2019-05-01T13:13:49.508Z,20.90
2019-05-01T13:16:20.917Z,20.60
2019-05-01T13:18:52.004Z,20.70
2019-05-01T13:21:23.313Z,20.50
2019-05-01T13:23:54.400Z,20.50
2019-05-01T13:26:50.684Z,20.50
2019-05-01T13:29:29.634Z,21.00
2019-05-01T13:32:06.090Z,21.30
2019-05-01T13:34:37.199Z,21.30
2019-05-01T13:37:08.484Z,21.50
2019-05-01T13:39:39.538Z,21.90
2019-05-01T13:42:10.770Z,22.00
2019-05-01T13:44:42.160Z,21.70
2019-05-01T13:47:13.682Z,21.80
2019-05-01T13:49:44.766Z,21.80
2019-05-01T13:52:16.060Z,21.60
2019-05-01T13:54:47.169Z,21.40
2019-05-01T13:57:18.484Z,21.20
2019-05-01T13:59:49.554Z,21.00
2019-05-01T14:02:21.054Z,21.20
2019-05-01T14:04:52.118Z,21.60
2019-05-01T14:07:23.364Z,21.60
2019-05-01T14:09:55.546Z,21.70
2019-05-01T14:12:26.860Z,21.80
2019-05-01T14:14:57.902Z,21.50
2019-05-01T14:17:29.774Z,21.40
2019-05-01T14:20:07.926Z,21.20
2019-05-01T14:22:55.909Z,21.00
2019-05-01T14:25:28.548Z,21.10
2019-05-01T14:27:59.868Z,21.50
2019-05-01T14:30:30.932Z,21.70
2019-05-01T14:33:02.254Z,21.30
2019-05-01T14:35:33.386Z,21.00
2019-05-01T14:38:04.928Z,21.20
2019-05-01T14:40:35.990Z,21.30
2019-05-01T14:43:07.696Z,21.60
2019-05-01T14:45:38.748Z,21.70
2019-05-01T14:48:10.343Z,22.00
2019-05-01T14:50:41.396Z,22.30
2019-05-01T14:53:12.726Z,22.40
2019-05-01T14:55:43.785Z,22.80
2019-05-01T14:58:17.177Z,22.70
2019-05-01T15:00:48.716Z,22.40
2019-05-01T15:03:20.072Z,22.10
2019-05-01T15:05:51.366Z,21.90
2019-05-01T15:08:22.662Z,22.00
2019-05-01T15:10:53.728Z,22.10
2019-05-01T15:13:53.740Z,21.60
2019-05-01T15:16:32.553Z,22.00
2019-05-01T15:19:13.082Z,22.50
2019-05-01T15:21:44.210Z,22.50
2019-05-01T15:24:15.512Z,22.00
2019-05-01T15:26:47.218Z,22.10
2019-05-01T15:29:18.842Z,22.30
2019-05-01T15:31:49.982Z,22.70
2019-05-01T15:34:21.235Z,22.80
2019-05-01T15:36:52.310Z,23.00
2019-05-01T15:39:34.886Z,22.70
2019-05-01T15:42:24.975Z,22.80
2019-05-01T15:44:56.720Z,23.10
2019-05-01T15:47:27.792Z,22.90
2019-05-01T15:50:18.648Z,22.90
2019-05-01T15:52:49.934Z,22.70
2019-05-01T15:55:21.267Z,22.60
2019-05-01T15:57:52.435Z,22.60
2019-05-01T16:00:23.671Z,22.80
2019-05-01T16:02:54.941Z,21.90
2019-05-01T16:05:26.460Z,22.20
2019-05-01T16:08:09.202Z,22.50
2019-05-01T16:10:36.086Z,22.80
2019-05-01T16:13:07.782Z,23.10
2019-05-01T16:15:39.339Z,23.10
2019-05-01T16:18:10.467Z,23.30
2019-05-01T16:20:41.741Z,23.10
2019-05-01T16:23:12.800Z,23.10
2019-05-01T16:25:44.084Z,23.40
2019-05-01T16:28:15.132Z,23.50
2019-05-01T16:30:46.418Z,23.70
2019-05-01T16:33:17.502Z,23.10
2019-05-01T16:35:50.327Z,23.10
2019-05-01T16:38:30.121Z,23.00
2019-05-01T16:41:05.223Z,23.00
2019-05-01T16:43:55.345Z,22.80
2019-05-01T16:46:26.675Z,22.60
2019-05-01T16:48:58.202Z,22.80
2019-05-01T16:51:29.572Z,22.70
2019-05-01T16:54:00.645Z,23.00
2019-05-01T16:56:34.589Z,23.30
2019-05-01T16:59:07.090Z,23.10
2019-05-01T17:01:50.985Z,23.20
2019-05-01T17:04:29.891Z,23.40
2019-05-01T17:10:15.798Z,23.40
2019-05-01T17:12:51.916Z,23.40
2019-05-01T17:15:35.587Z,23.20
2019-05-01T17:18:25.655Z,23.00
2019-05-01T17:20:57.537Z,23.40
2019-05-01T17:23:28.710Z,22.70
2019-05-01T17:26:00.465Z,22.80
2019-05-01T17:28:32.920Z,23.20
2019-05-01T17:31:04.774Z,23.10
2019-05-01T17:33:35.822Z,23.80
2019-05-01T17:36:07.173Z,24.00
2019-05-01T17:38:49.022Z,23.80
2019-05-01T17:41:11.403Z,24.10
2019-05-01T17:43:44.680Z,23.90
2019-05-01T17:46:15.427Z,24.10
2019-05-01T17:48:46.811Z,24.10
2019-05-01T17:51:19.884Z,23.80
2019-05-01T17:53:51.104Z,23.50
2019-05-01T17:56:27.857Z,23.20
2019-05-01T17:58:55.173Z,22.80
2019-05-01T18:01:46.749Z,22.30
2019-05-01T18:04:24.171Z,21.70
2019-05-01T18:06:55.829Z,20.90
2019-05-01T18:09:26.921Z,20.60
2019-05-01T18:11:58.376Z,20.20
2019-05-01T18:14:30.107Z,19.80
2019-05-01T18:17:01.627Z,19.50
2019-05-01T18:19:33.078Z,19.10
2019-05-01T18:22:14.481Z,18.70
2019-05-01T18:25:03.028Z,18.50
2019-05-01T18:27:54.499Z,18.10
2019-05-01T18:33:13.006Z,17.60
2019-05-01T18:35:45.014Z,17.40
2019-05-01T18:41:32.086Z,16.90
2019-05-01T18:44:05.130Z,16.60
2019-05-01T18:46:48.501Z,16.60
2019-05-01T18:49:19.537Z,16.40
2019-05-01T18:52:02.680Z,16.20
2019-05-01T18:54:45.214Z,16.00
2019-05-01T18:57:16.468Z,15.90
2019-05-01T18:59:47.569Z,15.70
2019-05-01T19:02:20.459Z,15.60
2019-05-01T19:04:52.601Z,15.60
2019-05-01T19:07:24.015Z,15.40
2019-05-01T19:10:14.441Z,15.30
2019-05-01T19:12:45.984Z,15.20
2019-05-01T19:15:17.986Z,15.00
2019-05-01T19:17:49.483Z,14.90
2019-05-01T19:20:20.685Z,14.70
2019-05-01T19:22:52.386Z,14.60
2019-05-01T19:25:23.491Z,14.50
2019-05-01T19:27:54.895Z,14.40
2019-05-01T19:30:26.267Z,14.40
2019-05-01T19:32:57.785Z,14.20
2019-05-01T19:35:33.794Z,14.20
2019-05-01T19:38:01.963Z,14.20
2019-05-01T19:40:33.831Z,14.20
2019-05-01T19:43:05.155Z,14.20
2019-05-01T19:45:37.643Z,14.00
2019-05-01T19:48:09.389Z,13.90
2019-05-01T19:50:47.942Z,13.60
2019-05-01T19:53:14.778Z,13.50
2019-05-01T19:55:46.698Z,13.40
2019-05-01T19:58:19.008Z,13.20
2019-05-01T20:00:59.267Z,13.10
2019-05-01T20:03:36.328Z,13.00
2019-05-01T20:06:05.283Z,12.80
2019-05-01T20:08:36.959Z,12.80
2019-05-01T20:11:09.907Z,12.80
2019-05-01T20:13:42.523Z,12.70
2019-05-01T20:16:14.132Z,12.60
2019-05-01T20:19:04.495Z,12.50
2019-05-01T20:21:48.109Z,12.40
2019-05-01T20:24:19.488Z,12.40
2019-05-01T20:26:50.592Z,12.40
2019-05-01T20:29:21.692Z,12.40
2019-05-01T20:31:52.829Z,12.40
2019-05-01T20:34:24.149Z,12.20
2019-05-01T20:36:55.250Z,12.20
2019-05-01T20:39:26.451Z,12.20
2019-05-01T20:41:58.107Z,12.20
2019-05-01T20:44:29.545Z,12.10
2019-05-01T20:47:02.584Z,12.10
2019-05-01T20:49:36.368Z,12.00
2019-05-01T20:52:06.627Z,11.90
2019-05-01T20:54:38.017Z,11.90
2019-05-01T20:57:21.033Z,11.80
2019-05-01T20:59:48.902Z,11.70
2019-05-01T21:02:21.101Z,11.70
2019-05-01T21:05:21.555Z,11.60
2019-05-01T21:08:14.430Z,11.40
2019-05-01T21:10:51.076Z,11.30
2019-05-01T21:13:23.257Z,11.20
2019-05-01T21:16:01.805Z,11.20
2019-05-01T21:18:37.328Z,11.00
2019-05-01T21:21:08.581Z,11.00
2019-05-01T21:23:39.879Z,11.00
2019-05-01T21:26:11.424Z,10.90
2019-05-01T21:28:44.789Z,10.90
2019-05-01T21:31:15.567Z,10.90
2019-05-01T21:33:50.535Z,10.90
2019-05-01T21:36:19.539Z,10.90
2019-05-01T21:38:50.612Z,10.90
2019-05-01T21:41:22.439Z,10.90
2019-05-01T21:43:53.907Z,10.70
2019-05-01T21:46:25.399Z,10.70
2019-05-01T21:48:57.700Z,10.70
2019-05-01T21:51:29.023Z,10.60
2019-05-01T21:54:00.141Z,10.50
2019-05-01T21:56:31.323Z,10.60
2019-05-01T21:59:06.820Z,10.50
2019-05-01T22:01:36.407Z,10.50
2019-05-01T22:04:19.157Z,10.40
2019-05-01T22:06:52.022Z,10.40
2019-05-01T22:09:25.900Z,10.40
2019-05-01T22:11:57.395Z,10.40
2019-05-01T22:15:06.045Z,10.30
2019-05-01T22:17:53.375Z,10.20
2019-05-01T22:20:34.343Z,10.10
2019-05-01T22:23:09.583Z,10.10
2019-05-01T22:25:48.247Z,10.10
2019-05-01T22:28:36.859Z,10.00
2019-05-01T22:31:26.619Z,10.00
2019-05-01T22:34:06.595Z,10.00
2019-05-01T22:36:37.845Z,9.90
2019-05-01T22:39:09.191Z,9.80
2019-05-01T22:41:42.035Z,9.80
2019-05-01T22:44:32.370Z,9.70
2019-05-01T22:47:03.912Z,9.70
2019-05-01T22:49:35.483Z,9.60
2019-05-01T22:52:06.586Z,9.60
2019-05-01T22:54:37.879Z,9.60
2019-05-01T22:57:08.931Z,9.30
2019-05-01T22:59:40.075Z,9.10
2019-05-01T23:02:18.734Z,9.00
2019-05-01T23:04:52.121Z,9.00
2019-05-01T23:07:23.561Z,9.10
2019-05-01T23:09:59.192Z,9.10
2019-05-01T23:12:29.375Z,9.10
2019-05-01T23:15:04.341Z,9.10
2019-05-01T23:17:41.891Z,9.10
2019-05-01T23:20:13.690Z,9.00
2019-05-01T23:22:44.783Z,9.10
2019-05-01T23:25:16.802Z,9.10
2019-05-01T23:27:47.959Z,9.00
2019-05-01T23:30:21.762Z,8.80
2019-05-01T23:32:52.851Z,8.70
2019-05-01T23:35:24.141Z,8.60
2019-05-01T23:37:55.173Z,8.70
2019-05-01T23:40:26.477Z,8.80
2019-05-01T23:42:57.719Z,8.70
2019-05-01T23:45:29.131Z,8.60
2019-05-01T23:48:00.232Z,8.50
2019-05-01T23:50:31.843Z,8.50
2019-05-01T23:53:02.935Z,8.50
2019-05-01T23:55:34.237Z,8.40
2019-05-01T23:58:05.269Z,8.50
